createdAt,value
2023-01-31T00:03:15.117Z,5.77
2023-01-31T00:08:17.473Z,5.72
2023-01-31T00:13:19.328Z,5.73
2023-01-31T00:18:21.237Z,5.72
2023-01-31T00:23:23.171Z,5.70
2023-01-31T00:28:25.020Z,5.77
2023-01-31T00:33:26.851Z,5.70
2023-01-31T00:38:28.680Z,5.64
2023-01-31T00:43:31.865Z,5.72
2023-01-31T00:48:34.740Z,5.60
2023-01-31T00:53:37.796Z,5.50
2023-01-31T00:58:40.350Z,5.35
2023-01-31T01:03:44.392Z,5.25
2023-01-31T01:08:46.509Z,5.05
2023-01-31T01:13:48.899Z,4.94
2023-01-31T01:18:51.543Z,4.88
2023-01-31T01:23:55.947Z,4.79
2023-01-31T01:28:59.126Z,4.70
2023-01-31T01:34:21.304Z,4.73
2023-01-31T01:39:23.338Z,4.81
2023-01-31T01:44:54.180Z,4.82
2023-01-31T01:50:20.622Z,4.68
2023-01-31T01:55:42.537Z,4.66
2023-01-31T02:00:45.684Z,4.65
2023-01-31T02:05:52.178Z,4.67
2023-01-31T02:10:59.161Z,4.75
2023-01-31T02:16:01.044Z,4.84
2023-01-31T02:21:21.731Z,4.88
2023-01-31T02:27:01.505Z,4.95
2023-01-31T02:32:39.178Z,4.96
2023-01-31T02:38:02.747Z,5.03
2023-01-31T02:43:09.211Z,5.12
2023-01-31T02:48:25.401Z,5.18
2023-01-31T02:53:35.661Z,5.15
2023-01-31T02:58:39.969Z,5.18
2023-01-31T03:03:42.042Z,5.11
2023-01-31T03:08:45.141Z,5.04
2023-01-31T03:14:00.044Z,5.00
2023-01-31T03:19:13.696Z,5.02
2023-01-31T03:24:19.179Z,5.01
2023-01-31T03:29:23.898Z,5.05
2023-01-31T03:34:27.374Z,5.04
2023-01-31T03:39:33.023Z,5.04
2023-01-31T03:45:19.780Z,4.93
2023-01-31T03:50:38.678Z,4.53
2023-01-31T03:55:50.242Z,4.29
2023-01-31T04:00:54.926Z,4.15
2023-01-31T04:05:57.101Z,4.14
2023-01-31T04:11:00.763Z,4.13
2023-01-31T04:16:03.769Z,4.05
2023-01-31T04:21:05.844Z,3.97
2023-01-31T04:26:07.996Z,4.01
2023-01-31T04:31:10.698Z,4.20
2023-01-31T04:36:12.695Z,4.31
2023-01-31T04:41:14.523Z,4.43
2023-01-31T04:46:16.417Z,4.44
2023-01-31T04:51:18.271Z,4.46
2023-01-31T04:56:20.083Z,4.53
2023-01-31T05:01:21.912Z,4.58
2023-01-31T05:06:23.879Z,4.62
2023-01-31T05:11:25.700Z,4.58
2023-01-31T05:16:27.547Z,4.64
2023-01-31T05:21:51.131Z,4.73
2023-01-31T05:26:56.908Z,4.78
2023-01-31T05:32:00.991Z,4.78
2023-01-31T05:37:04.277Z,4.87
2023-01-31T05:42:06.528Z,4.90
2023-01-31T05:47:08.377Z,4.85
2023-01-31T05:52:10.214Z,4.84
2023-01-31T05:57:12.115Z,4.83
2023-01-31T06:02:14.065Z,4.82
2023-01-31T06:07:15.989Z,4.84
2023-01-31T06:12:18.017Z,4.82
2023-01-31T06:17:19.914Z,4.87
2023-01-31T06:22:21.820Z,4.83
2023-01-31T06:27:23.673Z,4.82
2023-01-31T06:32:25.564Z,4.78
2023-01-31T06:37:27.407Z,4.86
2023-01-31T06:42:29.352Z,4.94
2023-01-31T06:47:31.226Z,4.90
2023-01-31T06:52:33.663Z,4.90
2023-01-31T06:57:35.533Z,4.91
2023-01-31T07:02:37.322Z,4.95
2023-01-31T07:07:39.173Z,4.94
2023-01-31T07:12:41.026Z,4.96
2023-01-31T07:17:44.282Z,4.96
2023-01-31T07:22:57.072Z,4.96
2023-01-31T07:27:59.010Z,4.95
2023-01-31T07:33:01.147Z,5.15
2023-01-31T07:38:02.996Z,5.27
2023-01-31T07:43:04.836Z,5.28
2023-01-31T07:48:07.584Z,5.23
2023-01-31T07:53:09.429Z,5.18
2023-01-31T07:58:11.304Z,5.24
2023-01-31T08:03:35.368Z,5.20
2023-01-31T08:08:38.299Z,5.31
2023-01-31T08:13:40.618Z,5.38
2023-01-31T08:18:42.484Z,5.49
2023-01-31T08:23:45.023Z,5.62
2023-01-31T08:28:48.139Z,5.76
2023-01-31T08:33:53.055Z,5.91
2023-01-31T08:38:55.982Z,6.03
2023-01-31T08:43:58.893Z,5.96
2023-01-31T08:49:02.314Z,5.90
2023-01-31T08:54:04.316Z,5.92
2023-01-31T08:59:06.130Z,5.91
2023-01-31T09:04:09.351Z,5.92
2023-01-31T09:09:11.894Z,5.99
2023-01-31T09:14:13.779Z,6.07
2023-01-31T09:19:15.623Z,6.23
2023-01-31T09:24:17.482Z,6.22
2023-01-31T09:29:19.281Z,6.26
2023-01-31T09:34:22.274Z,6.42
2023-01-31T09:39:24.875Z,6.58
2023-01-31T09:44:33.104Z,6.60
2023-01-31T09:49:51.206Z,6.61
2023-01-31T09:54:53.232Z,6.61
2023-01-31T10:00:18.072Z,6.69
2023-01-31T10:06:03.847Z,6.78
2023-01-31T10:11:13.370Z,6.91
2023-01-31T10:16:20.764Z,6.99
2023-01-31T10:21:29.210Z,7.08
2023-01-31T10:26:34.687Z,7.17
2023-01-31T10:32:12.594Z,7.12
2023-01-31T10:37:37.783Z,6.95
2023-01-31T10:42:40.268Z,6.86
2023-01-31T10:47:50.527Z,6.80
2023-01-31T10:53:05.663Z,6.73
2023-01-31T10:58:20.205Z,6.76
2023-01-31T11:03:22.306Z,6.78
2023-01-31T11:08:53.571Z,6.76
2023-01-31T11:14:06.526Z,6.81
2023-01-31T11:19:34.508Z,6.86
2023-01-31T11:24:41.395Z,6.91
2023-01-31T11:29:50.445Z,7.02
2023-01-31T11:35:04.886Z,7.07
2023-01-31T11:40:30.571Z,7.15
2023-01-31T11:45:36.220Z,7.20
2023-01-31T11:50:40.692Z,7.20
2023-01-31T11:55:43.573Z,7.18
2023-01-31T12:00:58.528Z,7.19
2023-01-31T12:06:09.932Z,7.19
2023-01-31T12:11:21.035Z,7.26
2023-01-31T12:16:25.608Z,7.38
2023-01-31T12:21:27.376Z,7.33
2023-01-31T12:27:02.603Z,7.29
2023-01-31T12:32:13.434Z,7.23
2023-01-31T12:37:31.878Z,7.18
2023-01-31T12:43:04.631Z,7.04
2023-01-31T12:48:35.583Z,6.95
2023-01-31T12:54:31.451Z,6.88
2023-01-31T12:59:33.237Z,6.80
2023-01-31T13:04:40.116Z,6.75
2023-01-31T13:09:42.917Z,6.63
2023-01-31T13:14:49.795Z,6.61
2023-01-31T13:20:17.277Z,6.54
2023-01-31T13:25:33.125Z,6.46
2023-01-31T13:30:40.892Z,6.39
2023-01-31T13:35:45.300Z,6.30
2023-01-31T13:40:54.979Z,6.20
2023-01-31T13:46:02.919Z,6.07
2023-01-31T13:51:22.805Z,5.91
2023-01-31T13:56:29.546Z,5.86
2023-01-31T14:01:35.457Z,5.79
2023-01-31T14:07:13.963Z,5.79
2023-01-31T14:12:15.781Z,5.67
2023-01-31T14:17:29.785Z,5.59
2023-01-31T14:22:37.437Z,5.56
2023-01-31T14:27:44.209Z,5.57
2023-01-31T14:32:50.985Z,5.59
2023-01-31T14:38:11.012Z,5.62
2023-01-31T14:43:22.337Z,5.65
2023-01-31T14:49:07.627Z,5.68
2023-01-31T14:54:30.754Z,5.64
2023-01-31T14:59:34.198Z,5.62
2023-01-31T15:04:36.052Z,5.68
2023-01-31T15:09:39.658Z,5.73
2023-01-31T15:14:49.194Z,5.73
2023-01-31T15:19:57.683Z,5.77
2023-01-31T15:25:06.281Z,5.68
2023-01-31T15:30:17.407Z,5.66
2023-01-31T15:35:24.316Z,5.66
2023-01-31T15:40:28.881Z,5.61
2023-01-31T15:45:31.226Z,5.55
2023-01-31T15:50:34.483Z,5.49
2023-01-31T15:55:36.641Z,5.53
2023-01-31T16:00:38.972Z,5.59
2023-01-31T16:05:41.901Z,5.54
2023-01-31T16:10:45.245Z,5.48
2023-01-31T16:15:48.299Z,5.45
2023-01-31T16:20:52.731Z,5.41
2023-01-31T16:26:03.335Z,5.41
2023-01-31T16:31:11.494Z,5.39
2023-01-31T16:36:17.506Z,5.42
2023-01-31T16:41:40.828Z,5.45
2023-01-31T16:46:46.097Z,5.49
2023-01-31T16:51:48.993Z,5.55
2023-01-31T16:57:03.221Z,5.57
2023-01-31T17:02:32.591Z,5.58
2023-01-31T17:07:36.363Z,5.60
2023-01-31T17:12:41.126Z,5.58
2023-01-31T17:17:43.103Z,5.59
2023-01-31T17:22:50.486Z,5.65
2023-01-31T17:27:58.635Z,5.77
2023-01-31T17:33:01.015Z,5.88
2023-01-31T17:38:03.194Z,5.97
2023-01-31T17:43:05.190Z,6.00
2023-01-31T17:48:07.813Z,6.04
2023-01-31T17:53:14.063Z,6.08
2023-01-31T17:58:18.308Z,6.12
2023-01-31T18:03:22.724Z,6.15
2023-01-31T18:08:24.733Z,6.12
2023-01-31T18:13:26.613Z,6.18
2023-01-31T18:18:28.539Z,6.34
2023-01-31T18:23:30.473Z,6.46
2023-01-31T18:28:32.331Z,6.49
2023-01-31T18:33:34.277Z,6.63
2023-01-31T18:38:36.231Z,6.69
2023-01-31T18:43:38.121Z,6.72
2023-01-31T18:48:40.727Z,6.71
2023-01-31T18:53:46.050Z,6.72
2023-01-31T18:58:49.892Z,6.75
2023-01-31T19:03:53.665Z,6.77
2023-01-31T19:08:57.709Z,6.79
2023-01-31T19:14:05.172Z,6.81
2023-01-31T19:19:08.024Z,6.83
2023-01-31T19:24:14.348Z,6.86
2023-01-31T19:29:16.578Z,6.92
2023-01-31T19:34:18.608Z,6.95
2023-01-31T19:39:20.458Z,7.00
2023-01-31T19:44:22.328Z,6.95
2023-01-31T19:49:24.195Z,6.98
2023-01-31T19:54:27.947Z,6.98
2023-01-31T19:59:29.948Z,7.04
2023-01-31T20:04:32.746Z,6.99
2023-01-31T20:09:34.577Z,7.03
2023-01-31T20:14:36.432Z,7.08
2023-01-31T20:19:38.269Z,7.08
2023-01-31T20:24:40.114Z,6.94
2023-01-31T20:29:42.317Z,6.88
2023-01-31T20:34:44.680Z,6.83
2023-01-31T20:39:46.543Z,6.81
2023-01-31T20:44:48.398Z,6.83
2023-01-31T20:49:50.237Z,6.85
2023-01-31T20:54:52.115Z,6.91
2023-01-31T20:59:54.001Z,6.95
2023-01-31T21:04:55.850Z,6.98
2023-01-31T21:09:57.702Z,6.96
2023-01-31T21:14:59.834Z,6.89
2023-01-31T21:20:01.748Z,6.77
2023-01-31T21:25:03.895Z,6.69
2023-01-31T21:30:06.561Z,6.59
2023-01-31T21:35:08.981Z,6.46
2023-01-31T21:40:11.569Z,6.49
2023-01-31T21:45:13.573Z,6.38
2023-01-31T21:50:15.411Z,6.35
2023-01-31T21:55:17.371Z,6.48
2023-01-31T22:00:20.184Z,6.52
2023-01-31T22:05:22.238Z,6.48
2023-01-31T22:10:24.472Z,6.51
2023-01-31T22:15:26.422Z,6.49
2023-01-31T22:20:28.550Z,6.58
2023-01-31T22:25:30.438Z,6.64
2023-01-31T22:30:33.090Z,6.70
2023-01-31T22:35:35.706Z,6.76
2023-01-31T22:40:43.316Z,6.92
2023-01-31T22:45:49.239Z,7.01
2023-01-31T22:50:59.484Z,7.02
2023-01-31T22:56:04.127Z,7.15
2023-01-31T23:01:34.850Z,7.22
2023-01-31T23:06:37.802Z,7.12
2023-01-31T23:11:39.890Z,7.09
2023-01-31T23:17:00.669Z,7.07
2023-01-31T23:22:03.116Z,6.99
2023-01-31T23:27:05.062Z,7.01
2023-01-31T23:32:06.888Z,7.14
2023-01-31T23:37:08.740Z,7.10
2023-01-31T23:42:11.507Z,7.22
2023-01-31T23:47:13.324Z,7.11
2023-01-31T23:52:15.226Z,7.20
2023-01-31T23:57:17.216Z,7.16
